Time;durP1;ratioP1;P1;durP2;ratioP2;P2;SDS_P1;SDS_P2;PMS_P1;PMS_P2;Temp;Humidity;BMP_temperature;BMP_pressure;BME280_temperature;BME280_humidity;BME280_pressure;Samples;Min_cycle;Max_cycle;Signal;HPM_P1;HPM_P2
2022/05/29 00:00:25;;;;;;;5.63;3.03;;;13.80;58.40;;;;;;5050832;28;20242;-54
2022/05/29 00:02:56;;;;;;;4.30;2.60;;;13.80;58.30;;;;;;5050361;28;20249;-50
2022/05/29 00:05:28;;;;;;;6.10;3.10;;;13.80;58.30;;;;;;5050159;28;20281;-52
2022/05/29 00:07:59;;;;;;;3.85;2.72;;;13.90;58.40;;;;;;5049010;28;20940;-53
2022/05/29 00:10:29;;;;;;;3.88;2.47;;;13.90;58.40;;;;;;5049219;28;20566;-55
2022/05/29 00:13:00;;;;;;;4.65;2.95;;;13.90;58.40;;;;;;5050311;28;20192;-55
2022/05/29 00:15:30;;;;;;;4.63;2.90;;;14.00;58.40;;;;;;5049043;28;20277;-57
2022/05/29 00:18:01;;;;;;;3.58;2.55;;;14.00;58.40;;;;;;5049832;28;20196;-54
2022/05/29 00:20:33;;;;;;;4.35;2.67;;;14.00;58.40;;;;;;5050527;28;20254;-54
2022/05/29 00:23:04;;;;;;;3.63;2.58;;;14.00;58.40;;;;;;5050004;28;20655;-53
2022/05/29 00:25:35;;;;;;;4.38;2.90;;;14.10;58.50;;;;;;5049087;28;20219;-57
2022/05/29 00:28:06;;;;;;;4.97;2.50;;;14.10;58.50;;;;;;5048817;28;20192;-50
2022/05/29 00:30:36;;;;;;;3.67;2.85;;;14.10;58.60;;;;;;5048151;28;20191;-54
2022/05/29 00:33:07;;;;;;;3.35;2.80;;;14.10;58.60;;;;;;5049928;28;20200;-50
2022/05/29 00:35:40;;;;;;;4.05;2.38;;;14.10;58.60;;;;;;5048919;28;20245;-52
2022/05/29 00:38:12;;;;;;;4.10;2.90;;;14.20;58.60;;;;;;5049176;28;20223;-50
2022/05/29 00:40:48;;;;;;;3.63;2.50;;;14.20;58.60;;;;;;5049830;28;20230;-50
2022/05/29 00:43:19;;;;;;;3.80;2.75;;;14.20;58.60;;;;;;5050008;28;20667;-51
2022/05/29 00:45:53;;;;;;;4.35;2.75;;;14.20;58.60;;;;;;5044705;28;20220;-54
2022/05/29 00:48:25;;;;;;;4.13;2.80;;;14.30;58.60;;;;;;5047786;28;20202;-52
2022/05/29 00:51:02;;;;;;;4.35;2.63;;;14.30;58.50;;;;;;5048988;28;20219;-52
2022/05/29 00:53:36;;;;;;;3.20;2.50;;;14.30;58.50;;;;;;5049318;28;20187;-55
2022/05/29 00:56:11;;;;;;;4.65;2.47;;;14.30;58.50;;;;;;5049241;28;20269;-52
2022/05/29 00:58:41;;;;;;;4.05;2.85;;;14.40;59.20;;;;;;5048432;28;20241;-56
2022/05/29 01:01:13;;;;;;;5.20;2.80;;;14.40;59.20;;;;;;5049407;28;20199;-57
2022/05/29 01:03:43;;;;;;;3.88;3.00;;;14.50;58.60;;;;;;5048728;28;20627;-53
2022/05/29 01:06:16;;;;;;;4.78;2.90;;;14.50;58.60;;;;;;5049189;28;20761;-51
2022/05/29 01:08:46;;;;;;;4.28;3.35;;;14.50;58.70;;;;;;5048971;28;20196;-51
2022/05/29 01:11:28;;;;;;;4.32;3.30;;;14.50;58.70;;;;;;5047972;28;20655;-50
2022/05/29 01:14:10;;;;;;;5.18;3.17;;;14.60;58.80;;;;;;5049394;28;20199;-52
2022/05/29 01:16:52;;;;;;;3.85;3.00;;;14.60;58.80;;;;;;5048794;28;20238;-52
2022/05/29 01:19:42;;;;;;;3.63;2.58;;;14.60;58.80;;;;;;5048336;28;20234;-54
2022/05/29 01:22:31;;;;;;;4.85;3.40;;;14.60;58.90;;;;;;5048859;28;20990;-55
2022/05/29 01:25:38;;;;;;;3.88;2.67;;;14.70;58.80;;;;;;5048535;28;20645;-56
2022/05/29 01:28:15;;;;;;;3.53;2.97;;;14.70;59.10;;;;;;4985645;28;20194;-55
2022/05/29 01:30:50;;;;;;;4.28;2.65;;;14.70;59.30;;;;;;5037934;28;20206;-55
2022/05/29 01:33:37;;;;;;;5.28;3.22;;;14.80;59.30;;;;;;5048180;28;20249;-57
2022/05/29 01:36:12;;;;;;;4.28;3.10;;;14.80;59.20;;;;;;5048742;28;20292;-54
2022/05/29 01:38:47;;;;;;;3.85;2.83;;;14.80;59.10;;;;;;5046460;28;20281;-52
2022/05/29 01:41:24;;;;;;;4.53;2.58;;;14.80;59.10;;;;;;5048408;28;20647;-56
2022/05/29 01:44:03;;;;;;;6.30;2.80;;;14.90;59.10;;;;;;5048318;28;20691;-54
2022/05/29 01:46:35;;;;;;;2.97;2.35;;;14.90;59.00;;;;;;5047957;28;20207;-53
2022/05/29 01:49:16;;;;;;;3.85;2.70;;;15.00;59.00;;;;;;5048096;28;20199;-54
2022/05/29 01:51:54;;;;;;;3.72;2.60;;;15.00;59.00;;;;;;5049027;28;20204;-57
2022/05/29 01:54:30;;;;;;;4.72;2.83;;;15.00;58.90;;;;;;5047983;28;20253;-56
2022/05/29 01:57:05;;;;;;;5.72;2.65;;;15.00;58.80;;;;;;5048002;28;20223;-55
2022/05/29 01:59:43;;;;;;;3.90;2.72;;;15.10;58.80;;;;;;5046973;28;20187;-57
2022/05/29 02:02:16;;;;;;;6.28;2.58;;;15.10;58.80;;;;;;5048143;28;20838;-58
2022/05/29 02:04:50;;;;;;;3.30;2.47;;;15.10;58.80;;;;;;5043083;28;20215;-57
2022/05/29 02:10:16;;;;;;;3.42;2.58;;;15.20;58.80;;;;;;5048033;28;20249;-55
2022/05/29 02:12:51;;;;;;;3.15;2.72;;;15.20;58.80;;;;;;5047459;28;20187;-57
2022/05/29 02:15:30;;;;;;;4.32;2.85;;;15.20;58.70;;;;;;5047763;28;20245;-55
2022/05/29 02:18:04;;;;;;;4.47;2.85;;;15.30;58.90;;;;;;5047844;28;20204;-56
2022/05/29 02:20:40;;;;;;;3.47;2.78;;;15.30;58.80;;;;;;5047935;28;20191;-55
2022/05/29 02:23:16;;;;;;;2.78;2.45;;;15.30;58.70;;;;;;5047298;28;20186;-56
2022/05/29 02:25:48;;;;;;;3.70;2.75;;;15.30;58.70;;;;;;5047805;28;20235;-55
2022/05/29 02:28:27;;;;;;;3.13;2.80;;;15.30;58.70;;;;;;5047533;28;20200;-55
2022/05/29 02:31:06;;;;;;;3.75;2.28;;;15.30;58.70;;;;;;5047146;28;20191;-55
2022/05/29 02:33:43;;;;;;;3.70;2.95;;;15.40;58.70;;;;;;5047841;28;20249;-54
2022/05/29 02:36:24;;;;;;;3.90;2.88;;;15.40;58.70;;;;;;5047964;28;20307;-52
2022/05/29 02:39:05;;;;;;;3.63;2.78;;;15.40;58.70;;;;;;5047125;28;20281;-55
2022/05/29 02:41:49;;;;;;;2.95;2.55;;;15.50;58.70;;;;;;5045148;28;20248;-55
2022/05/29 02:44:32;;;;;;;3.45;2.60;;;15.50;58.60;;;;;;5046188;28;20247;-52
2022/05/29 02:47:13;;;;;;;3.83;2.90;;;15.50;58.50;;;;;;5043425;28;20211;-55
2022/05/29 02:49:53;;;;;;;3.88;3.45;;;15.50;58.50;;;;;;5044802;28;20187;-55
2022/05/29 02:52:23;;;;;;;8.90;7.43;;;15.50;58.50;;;;;;5047085;28;20204;-52
2022/05/29 02:54:55;;;;;;;8.93;8.02;;;15.50;58.60;;;;;;5046809;28;20233;-55
2022/05/29 02:57:25;;;;;;;11.27;10.00;;;15.60;58.90;;;;;;5047434;28;20207;-53
2022/05/29 03:00:10;;;;;;;11.32;10.23;;;15.50;59.00;;;;;;5047234;28;20187;-54
2022/05/29 03:02:53;;;;;;;8.85;7.88;;;15.60;59.20;;;;;;5047471;28;20196;-55
2022/05/29 03:05:29;;;;;;;8.63;5.70;;;15.60;59.30;;;;;;5046773;28;20280;-57
2022/05/29 03:08:21;;;;;;;7.60;6.88;;;15.60;59.40;;;;;;5046910;28;20195;-56
2022/05/29 03:11:00;;;;;;;11.02;9.98;;;15.60;60.20;;;;;;5047299;28;20207;-58
2022/05/29 03:13:38;;;;;;;13.77;12.30;;;15.70;59.70;;;;;;5047945;28;20191;-53
2022/05/29 03:16:17;;;;;;;31.83;28.83;;;15.70;59.70;;;;;;5047171;28;20238;-56
2022/05/29 03:18:55;;;;;;;40.63;36.67;;;15.80;62.20;;;;;;5047133;28;20264;-55
2022/05/29 03:21:30;;;;;;;30.95;27.85;;;15.80;62.90;;;;;;5045883;28;20241;-54
2022/05/29 03:24:13;;;;;;;17.30;15.48;;;15.80;62.90;;;;;;5044217;28;20617;-55
2022/05/29 03:26:48;;;;;;;13.82;12.13;;;15.90;61.40;;;;;;5050776;28;20273;-56
2022/05/29 03:29:25;;;;;;;7.63;6.82;;;15.90;60.80;;;;;;5050739;28;20693;-56
2022/05/29 03:31:57;;;;;;;6.30;4.60;;;15.90;60.50;;;;;;5051288;28;20614;-55
2022/05/29 03:34:30;;;;;;;6.55;3.67;;;15.90;60.30;;;;;;5051472;28;20191;-56
2022/05/29 03:37:00;;;;;;;5.07;3.28;;;15.90;60.30;;;;;;5050516;28;20683;-55
2022/05/29 03:39:31;;;;;;;5.60;3.55;;;15.90;60.30;;;;;;5042546;28;20193;-55
2022/05/29 03:42:01;;;;;;;5.95;3.85;;;15.90;60.30;;;;;;5038561;28;20224;-57
2022/05/29 03:44:32;;;;;;;4.97;3.70;;;15.90;60.30;;;;;;5049248;28;20219;-55
2022/05/29 03:47:02;;;;;;;4.30;3.25;;;15.90;60.40;;;;;;5049033;28;20312;-55
2022/05/29 03:49:35;;;;;;;6.25;4.38;;;15.90;60.40;;;;;;5045022;28;20192;-57
2022/05/29 03:52:09;;;;;;;8.07;5.70;;;15.90;60.50;;;;;;5050704;28;20584;-56
2022/05/29 03:54:41;;;;;;;8.35;7.45;;;15.90;60.60;;;;;;5048318;28;20195;-57
2022/05/29 03:57:12;;;;;;;8.18;7.38;;;15.90;60.60;;;;;;5047628;28;20258;-56
2022/05/29 03:59:43;;;;;;;8.68;7.63;;;15.80;60.70;;;;;;5049641;28;20202;-56
2022/05/29 04:02:14;;;;;;;8.73;7.78;;;15.90;60.90;;;;;;5049649;28;20196;-56
2022/05/29 04:04:46;;;;;;;10.85;8.20;;;15.90;60.90;;;;;;5050040;28;20593;-57
2022/05/29 04:07:17;;;;;;;12.55;10.02;;;15.90;60.90;;;;;;5049599;28;20722;-56
2022/05/29 04:12:35;;;;;;;16.30;12.05;;;15.80;60.90;;;;;;5048762;28;20202;-56
2022/05/29 04:15:05;;;;;;;15.85;12.15;;;15.80;60.80;;;;;;5048608;28;20296;-56
2022/05/29 04:17:36;;;;;;;14.68;10.45;;;15.80;60.90;;;;;;5049327;28;20231;-55
2022/05/29 04:20:09;;;;;;;18.45;11.90;;;15.80;61.00;;;;;;5050073;28;20552;-56
2022/05/29 04:22:39;;;;;;;14.43;10.82;;;15.80;61.00;;;;;;5050273;28;20192;-51
2022/05/29 04:25:11;;;;;;;14.25;10.32;;;15.80;61.10;;;;;;5049926;28;20223;-55
2022/05/29 04:27:41;;;;;;;16.85;13.07;;;15.80;61.30;;;;;;5046449;28;20189;-55
2022/05/29 04:30:13;;;;;;;19.27;13.18;;;15.80;61.00;;;;;;5049310;28;20199;-56
2022/05/29 04:33:02;;;;;;;18.02;13.02;;;15.80;60.90;;;;;;5047515;28;20204;-55
2022/05/29 04:35:39;;;;;;;18.25;13.98;;;15.80;60.90;;;;;;5048740;28;20212;-55
2022/05/29 04:38:10;;;;;;;19.70;14.25;;;15.80;60.90;;;;;;5045184;28;20249;-56
2022/05/29 04:40:41;;;;;;;16.73;14.27;;;15.70;60.80;;;;;;5049814;28;20237;-58
2022/05/29 04:43:12;;;;;;;18.45;14.27;;;15.70;60.70;;;;;;5049459;28;20243;-58
2022/05/29 04:45:45;;;;;;;19.10;14.10;;;15.70;60.50;;;;;;5049509;28;20911;-58
2022/05/29 04:48:16;;;;;;;18.38;13.68;;;15.70;60.40;;;;;;5046986;28;20196;-57
2022/05/29 04:50:49;;;;;;;21.23;16.58;;;15.70;60.10;;;;;;5046544;28;20647;-58
2022/05/29 04:53:19;;;;;;;21.48;16.02;;;15.70;60.00;;;;;;5048664;28;20199;-56
2022/05/29 04:55:53;;;;;;;17.25;13.55;;;15.60;59.70;;;;;;5043534;28;20207;-56
2022/05/29 04:58:24;;;;;;;17.63;14.75;;;15.70;59.60;;;;;;5046854;28;20203;-58
2022/05/29 05:00:59;;;;;;;19.33;13.93;;;15.60;59.30;;;;;;5038368;28;20880;-57
2022/05/29 05:03:31;;;;;;;17.80;13.60;;;15.60;59.20;;;;;;5046381;28;20229;-56
2022/05/29 05:06:03;;;;;;;20.90;14.73;;;15.60;59.00;;;;;;5046666;28;20636;-57
2022/05/29 05:08:34;;;;;;;18.23;13.88;;;15.50;58.60;;;;;;5049153;28;20191;-56
2022/05/29 05:11:04;;;;;;;16.83;13.27;;;15.50;58.40;;;;;;5044959;28;20241;-57
2022/05/29 05:13:35;;;;;;;22.63;17.85;;;15.50;58.20;;;;;;5043457;28;20223;-56
2022/05/29 05:16:07;;;;;;;25.40;19.05;;;15.50;58.10;;;;;;5044791;28;20261;-54
2022/05/29 05:18:37;;;;;;;27.05;20.65;;;15.40;58.10;;;;;;5044043;28;20197;-55
2022/05/29 05:21:11;;;;;;;22.25;19.23;;;15.30;58.00;;;;;;5049097;28;20320;-55
2022/05/29 05:23:41;;;;;;;20.92;17.15;;;15.30;58.00;;;;;;5046920;28;20200;-57
2022/05/29 05:26:15;;;;;;;21.95;16.08;;;15.20;57.80;;;;;;5045484;28;20227;-55
2022/05/29 05:28:46;;;;;;;23.02;16.60;;;15.20;57.40;;;;;;5046230;28;20191;-57
2022/05/29 05:31:17;;;;;;;21.23;16.23;;;15.10;57.30;;;;;;5045481;28;20253;-55
2022/05/29 05:33:47;;;;;;;21.98;16.58;;;15.00;57.10;;;;;;5048498;28;20194;-56
2022/05/29 05:36:20;;;;;;;21.30;18.55;;;15.00;57.10;;;;;;5046007;28;20292;-57
2022/05/29 05:38:51;;;;;;;21.73;18.90;;;14.90;57.00;;;;;;5045195;28;20719;-56
2022/05/29 05:41:22;;;;;;;23.70;19.23;;;14.80;56.90;;;;;;5045815;28;20188;-56
2022/05/29 05:43:52;;;;;;;19.33;17.33;;;14.80;56.80;;;;;;5045087;28;20219;-57
2022/05/29 05:46:23;;;;;;;19.25;16.23;;;14.70;56.80;;;;;;5027915;28;20265;-58
2022/05/29 05:48:53;;;;;;;19.75;17.10;;;14.70;56.90;;;;;;5024541;28;20235;-55
2022/05/29 05:51:26;;;;;;;20.13;15.13;;;14.60;56.90;;;;;;5015112;28;20228;-56
2022/05/29 05:53:56;;;;;;;20.60;13.77;;;14.50;57.00;;;;;;5011086;28;20201;-53
2022/05/29 05:56:27;;;;;;;30.77;20.45;;;14.50;57.20;;;;;;5016035;28;20297;-56
2022/05/29 05:58:57;;;;;;;57.60;42.97;;;14.40;57.30;;;;;;5030404;28;20250;-57
2022/05/29 06:01:28;;;;;;;43.40;30.02;;;14.30;57.40;;;;;;5015188;28;20196;-55
2022/05/29 06:03:59;;;;;;;58.20;34.55;;;14.30;57.50;;;;;;5027890;28;20239;-55
2022/05/29 06:06:31;;;;;;;38.78;28.17;;;14.30;57.60;;;;;;5029656;28;20294;-57
2022/05/29 06:09:02;;;;;;;33.15;23.42;;;14.20;57.80;;;;;;5024597;28;20189;-57
2022/05/29 06:11:34;;;;;;;25.13;18.52;;;14.10;58.10;;;;;;5011096;28;20219;-57
2022/05/29 06:14:04;;;;;;;23.23;17.83;;;14.10;58.40;;;;;;5031354;28;20200;-56
2022/05/29 06:16:35;;;;;;;23.70;19.25;;;14.00;58.60;;;;;;5028782;28;20266;-57
2022/05/29 06:19:06;;;;;;;19.30;15.23;;;14.00;58.70;;;;;;5017609;28;20197;-51
2022/05/29 06:21:38;;;;;;;16.02;13.52;;;14.00;58.80;;;;;;5010051;28;20234;-55
2022/05/29 06:24:09;;;;;;;23.48;18.55;;;13.90;58.90;;;;;;5010592;28;20228;-53
2022/05/29 06:26:40;;;;;;;24.73;21.50;;;13.90;59.00;;;;;;5011611;28;20332;-57
2022/05/29 06:29:12;;;;;;;25.63;19.45;;;13.90;59.10;;;;;;5011500;28;20562;-56
2022/05/29 06:31:43;;;;;;;24.58;19.45;;;13.90;59.30;;;;;;5015931;28;20196;-55
2022/05/29 06:34:13;;;;;;;24.55;18.65;;;13.90;59.60;;;;;;5031445;28;20218;-58
2022/05/29 06:36:46;;;;;;;23.90;18.73;;;13.90;59.70;;;;;;5031182;28;20216;-56
2022/05/29 06:39:16;;;;;;;21.95;19.38;;;13.90;59.80;;;;;;5030917;28;20203;-56
2022/05/29 06:41:47;;;;;;;23.55;19.60;;;13.90;59.90;;;;;;5025069;28;20279;-57
2022/05/29 06:44:18;;;;;;;24.15;18.23;;;13.90;59.80;;;;;;5010823;28;20622;-56
2022/05/29 06:46:48;;;;;;;25.65;19.58;;;13.90;59.80;;;;;;5015509;28;20228;-53
2022/05/29 06:49:19;;;;;;;21.25;17.33;;;13.90;59.80;;;;;;5030569;28;20192;-56
2022/05/29 06:51:51;;;;;;;21.88;18.05;;;14.00;59.80;;;;;;5031032;28;20200;-51
2022/05/29 06:54:22;;;;;;;21.02;18.33;;;14.00;59.80;;;;;;5030684;28;20196;-58
2022/05/29 06:56:52;;;;;;;20.30;16.92;;;14.00;59.70;;;;;;5030256;28;20277;-53
2022/05/29 06:59:23;;;;;;;20.23;16.30;;;14.00;59.70;;;;;;5031368;28;20200;-55
2022/05/29 07:07:30;;;;;;;19.05;16.42;;;14.10;59.60;;;;;;5035000;28;20226;-54
2022/05/29 07:10:01;;;;;;;21.90;16.35;;;14.10;59.60;;;;;;5034869;28;20203;-57
2022/05/29 07:12:34;;;;;;;19.33;15.75;;;14.10;59.60;;;;;;5034648;28;20196;-52
2022/05/29 07:15:07;;;;;;;19.13;15.88;;;14.10;59.60;;;;;;5034666;28;20212;-55
2022/05/29 07:17:38;;;;;;;18.45;15.02;;;14.20;59.60;;;;;;5034008;28;20202;-56
2022/05/29 07:20:10;;;;;;;19.25;14.77;;;14.20;59.60;;;;;;5034688;28;20266;-58
2022/05/29 07:22:43;;;;;;;19.77;15.65;;;14.20;59.50;;;;;;5034283;28;20196;-54
2022/05/29 07:25:14;;;;;;;17.67;14.50;;;14.20;59.50;;;;;;5034423;28;20212;-54
2022/05/29 07:27:44;;;;;;;16.35;14.63;;;14.20;59.40;;;;;;5034681;28;20263;-57
2022/05/29 07:30:16;;;;;;;18.92;15.02;;;14.20;59.40;;;;;;5034467;28;20258;-56
2022/05/29 07:32:47;;;;;;;18.05;14.38;;;14.20;59.40;;;;;;5034189;28;20204;-54
2022/05/29 07:35:18;;;;;;;15.27;13.20;;;14.20;59.40;;;;;;5034454;28;20757;-54
2022/05/29 07:37:51;;;;;;;17.58;14.35;;;14.20;59.30;;;;;;5034502;28;20218;-55
2022/05/29 07:40:21;;;;;;;17.33;14.27;;;14.20;59.30;;;;;;5033968;28;20278;-54
2022/05/29 07:45:37;;;;;;;14.98;12.52;;;14.20;59.30;;;;;;5019481;28;20216;-53
2022/05/29 07:48:08;;;;;;;14.57;12.55;;;14.30;59.30;;;;;;5033156;28;20196;-57
2022/05/29 07:50:39;;;;;;;17.50;13.50;;;14.20;59.30;;;;;;5034417;28;20681;-54
2022/05/29 07:53:11;;;;;;;15.77;12.60;;;14.20;59.30;;;;;;5033984;28;20566;-55
2022/05/29 07:55:43;;;;;;;15.23;12.85;;;14.30;59.40;;;;;;5033762;28;20687;-56
2022/05/29 07:58:14;;;;;;;14.07;11.85;;;14.30;59.40;;;;;;5033762;28;20781;-56
2022/05/29 08:00:45;;;;;;;13.88;11.90;;;14.30;59.30;;;;;;5033960;28;20196;-55
2022/05/29 08:03:16;;;;;;;14.10;12.60;;;14.30;59.30;;;;;;5033248;28;20273;-56
2022/05/29 08:05:46;;;;;;;14.75;12.05;;;14.30;59.30;;;;;;5033256;28;20215;-54
2022/05/29 08:08:21;;;;;;;13.60;12.20;;;14.30;59.20;;;;;;5033361;28;20686;-54
2022/05/29 08:10:52;;;;;;;14.23;12.18;;;14.30;59.20;;;;;;5032830;28;20258;-54
2022/05/29 08:13:22;;;;;;;12.75;11.05;;;14.30;59.20;;;;;;5033998;28;20193;-54
2022/05/29 08:15:53;;;;;;;13.73;11.90;;;14.30;59.20;;;;;;5033627;28;20582;-53
2022/05/29 08:18:24;;;;;;;13.70;11.63;;;14.30;59.20;;;;;;5033351;28;20743;-56
2022/05/29 08:20:55;;;;;;;13.98;11.35;;;14.30;59.20;;;;;;5033787;28;20566;-57
2022/05/29 08:23:28;;;;;;;11.90;10.18;;;14.30;59.20;;;;;;5033526;28;20206;-57
2022/05/29 08:31:31;;;;;;;12.52;11.23;;;14.30;59.20;;;;;;5033116;28;20203;-55
2022/05/29 08:34:02;;;;;;;14.40;11.68;;;14.30;59.20;;;;;;5032321;28;20200;-55
2022/05/29 08:36:32;;;;;;;13.38;10.82;;;14.30;59.20;;;;;;5033286;28;20220;-55
2022/05/29 08:39:05;;;;;;;12.30;10.68;;;14.30;59.20;;;;;;5033336;28;20632;-56
2022/05/29 08:41:48;;;;;;;11.90;10.30;;;14.40;59.30;;;;;;5032570;28;20192;-57
2022/05/29 08:44:22;;;;;;;13.48;10.60;;;14.30;59.20;;;;;;5032066;28;20211;-53
2022/05/29 08:47:00;;;;;;;11.98;10.20;;;14.40;59.20;;;;;;5032600;28;20224;-53
2022/05/29 08:49:34;;;;;;;12.10;10.30;;;14.30;59.20;;;;;;5013334;28;20197;-53
2022/05/29 08:52:21;;;;;;;12.25;9.82;;;14.30;59.10;;;;;;5014948;28;20239;-55
2022/05/29 08:54:59;;;;;;;12.20;10.00;;;14.30;59.10;;;;;;5012485;28;20208;-56
2022/05/29 08:57:47;;;;;;;10.75;9.68;;;14.30;59.10;;;;;;5012687;28;20567;-54
2022/05/29 09:00:23;;;;;;;12.07;10.32;;;14.30;59.00;;;;;;5012716;28;20193;-51
2022/05/29 09:03:05;;;;;;;11.45;10.15;;;14.30;59.00;;;;;;5019421;28;20257;-55
2022/05/29 09:05:40;;;;;;;12.68;10.07;;;14.40;59.10;;;;;;5032573;28;20223;-54
2022/05/29 09:08:17;;;;;;;11.65;10.10;;;14.30;59.00;;;;;;5032143;28;20223;-57
2022/05/29 09:10:55;;;;;;;13.18;9.93;;;14.30;59.00;;;;;;5032613;28;20192;-53
2022/05/29 09:13:31;;;;;;;12.60;9.85;;;14.30;59.00;;;;;;5032701;28;20644;-55
2022/05/29 09:16:09;;;;;;;11.68;9.55;;;14.30;59.00;;;;;;5032026;28;20308;-56
2022/05/29 09:18:42;;;;;;;10.07;9.02;;;14.30;59.10;;;;;;5031250;28;20196;-56
2022/05/29 09:21:18;;;;;;;10.35;9.20;;;14.30;59.10;;;;;;5032211;28;20192;-52
2022/05/29 09:24:10;;;;;;;10.93;9.82;;;14.30;59.10;;;;;;5031496;28;20258;-54
2022/05/29 09:26:43;;;;;;;10.10;8.90;;;14.30;59.10;;;;;;5031735;28;20315;-54
2022/05/29 09:29:14;;;;;;;10.43;9.32;;;14.30;59.10;;;;;;5031710;28;20192;-56
2022/05/29 09:31:45;;;;;;;10.18;9.13;;;14.30;59.00;;;;;;5031975;28;20203;-55
2022/05/29 09:34:15;;;;;;;10.30;8.68;;;14.30;59.00;;;;;;5030928;28;20250;-57
2022/05/29 09:36:56;;;;;;;10.05;8.10;;;14.30;59.20;;;;;;5029913;28;20216;-55
2022/05/29 09:39:30;;;;;;;9.77;8.30;;;14.30;59.80;;;;;;5047233;28;20249;-53
2022/05/29 09:42:07;;;;;;;9.18;8.07;;;14.30;59.90;;;;;;5047791;28;20190;-55
2022/05/29 09:44:37;;;;;;;9.55;8.32;;;14.30;59.70;;;;;;5048287;28;20204;-54
2022/05/29 09:50:10;;;;;;;10.02;8.23;;;14.30;59.50;;;;;;5047983;28;20199;-58
2022/05/29 09:52:44;;;;;;;9.70;8.45;;;14.30;59.50;;;;;;5047930;28;20729;-59
2022/05/29 09:55:26;;;;;;;8.25;7.45;;;14.30;59.40;;;;;;5047213;28;20250;-56
2022/05/29 09:58:01;;;;;;;8.40;7.53;;;14.30;59.40;;;;;;5047403;28;20250;-57
2022/05/29 10:00:36;;;;;;;8.90;7.53;;;14.30;59.50;;;;;;5047838;28;20253;-55
2022/05/29 10:03:09;;;;;;;9.18;8.18;;;14.30;59.40;;;;;;5048165;28;20225;-56
2022/05/29 10:05:41;;;;;;;9.27;7.82;;;14.30;59.40;;;;;;5047885;28;20623;-57
2022/05/29 10:08:31;;;;;;;9.13;7.95;;;14.20;59.30;;;;;;5048126;28;20288;-56
2022/05/29 10:11:18;;;;;;;8.68;7.78;;;14.20;59.30;;;;;;5049039;28;20191;-58
2022/05/29 10:13:54;;;;;;;9.00;7.28;;;14.30;59.40;;;;;;5046618;28;20187;-58
2022/05/29 10:16:36;;;;;;;8.52;7.22;;;14.30;59.30;;;;;;5047876;28;20246;-58
2022/05/29 10:19:11;;;;;;;8.27;7.35;;;14.30;59.30;;;;;;5047948;28;20227;-57
2022/05/29 10:21:45;;;;;;;9.07;7.43;;;14.20;59.20;;;;;;5048396;28;20199;-58
2022/05/29 10:24:23;;;;;;;8.73;7.45;;;14.20;59.20;;;;;;5047728;28;20683;-57
2022/05/29 10:26:56;;;;;;;8.73;6.93;;;14.20;59.20;;;;;;5047644;28;20245;-58
2022/05/29 10:29:33;;;;;;;8.55;7.40;;;14.20;59.20;;;;;;5046835;28;20233;-57
2022/05/29 10:32:05;;;;;;;7.53;6.75;;;14.20;59.20;;;;;;5047653;28;20195;-57
2022/05/29 10:34:39;;;;;;;7.95;6.97;;;14.20;59.20;;;;;;5047052;28;20199;-58
2022/05/29 10:37:39;;;;;;;7.22;6.53;;;14.20;59.20;;;;;;5047245;28;20725;-52
2022/05/29 10:40:17;;;;;;;7.50;6.70;;;14.20;59.20;;;;;;5028270;28;20196;-54
2022/05/29 10:42:49;;;;;;;8.27;7.22;;;14.20;59.20;;;;;;5047292;28;20241;-59
2022/05/29 10:45:27;;;;;;;7.53;6.70;;;14.20;59.20;;;;;;5047700;28;20215;-58
2022/05/29 10:48:14;;;;;;;7.30;6.45;;;14.20;59.20;;;;;;5045589;28;20284;-62
2022/05/29 10:50:57;;;;;;;7.20;6.50;;;14.20;59.20;;;;;;5048110;28;20191;-58
2022/05/29 10:53:38;;;;;;;9.52;6.32;;;14.20;59.20;;;;;;5047664;28;20236;-57
2022/05/29 10:56:22;;;;;;;7.10;6.40;;;14.20;59.20;;;;;;5044137;28;20895;-58
2022/05/29 10:59:15;;;;;;;7.38;6.07;;;14.20;59.20;;;;;;5047342;28;20199;-59
2022/05/29 11:05:17;;;;;;;7.32;6.38;;;14.20;59.20;;;;;;5048060;28;20206;-59
2022/05/29 11:08:01;;;;;;;6.22;5.60;;;14.20;59.20;;;;;;5045076;28;20248;-58
2022/05/29 11:10:55;;;;;;;7.13;6.30;;;14.20;59.20;;;;;;5047955;28;20195;-59
2022/05/29 11:14:05;;;;;;;6.68;5.93;;;14.20;59.20;;;;;;5046669;28;20196;-59
2022/05/29 11:16:46;;;;;;;7.22;6.22;;;14.10;59.20;;;;;;5044314;28;20269;-55
2022/05/29 11:19:38;;;;;;;7.93;5.60;;;14.10;59.20;;;;;;5048041;28;20763;-56
2022/05/29 11:22:21;;;;;;;7.07;5.82;;;14.10;59.20;;;;;;5047479;28;20246;-58
2022/05/29 11:25:14;;;;;;;6.60;5.35;;;14.10;59.20;;;;;;5046437;28;20195;-59
2022/05/29 11:28:07;;;;;;;6.40;5.57;;;14.10;59.30;;;;;;5044355;28;20644;-58
2022/05/29 11:30:52;;;;;;;6.38;5.75;;;14.10;59.30;;;;;;5044647;28;20235;-56
2022/05/29 11:33:35;;;;;;;6.47;5.78;;;14.10;59.30;;;;;;5047625;28;20245;-60
2022/05/29 11:36:22;;;;;;;6.22;5.50;;;14.10;59.30;;;;;;5047187;28;20211;-58
2022/05/29 11:39:08;;;;;;;7.20;5.75;;;14.10;59.30;;;;;;5047350;28;20211;-54
2022/05/29 11:41:45;;;;;;;6.32;5.32;;;14.10;59.30;;;;;;5046957;28;20197;-55
2022/05/29 11:44:24;;;;;;;6.40;5.78;;;14.10;59.30;;;;;;5047378;28;20206;-58
2022/05/29 11:52:47;;;;;;;5.43;4.93;;;14.10;59.20;;;;;;5051487;28;20279;-58
2022/05/29 11:55:20;;;;;;;6.30;5.43;;;14.10;59.20;;;;;;5050707;28;20215;-57
2022/05/29 11:57:55;;;;;;;5.80;5.20;;;14.10;59.20;;;;;;5048984;28;20215;-53
2022/05/29 12:00:36;;;;;;;5.53;5.00;;;14.10;59.20;;;;;;5042094;28;20195;-59
2022/05/29 12:03:36;;;;;;;6.43;5.38;;;14.10;59.20;;;;;;5033809;28;20196;-58
2022/05/29 12:06:13;;;;;;;5.63;5.03;;;14.10;59.20;;;;;;5015452;28;20691;-58
2022/05/29 12:08:55;;;;;;;5.53;4.70;;;14.00;59.10;;;;;;5032473;28;20313;-57
2022/05/29 12:11:40;;;;;;;5.50;4.90;;;14.00;59.10;;;;;;5032437;28;20277;-56
2022/05/29 12:14:17;;;;;;;5.70;4.35;;;14.00;59.10;;;;;;5032292;28;20262;-58
2022/05/29 12:16:52;;;;;;;5.28;4.78;;;14.00;59.10;;;;;;5031352;28;20215;-58
2022/05/29 12:19:26;;;;;;;4.68;4.28;;;14.00;59.10;;;;;;5031353;28;20250;-58
2022/05/29 12:22:00;;;;;;;6.35;5.25;;;14.00;59.10;;;;;;5031789;28;20200;-58
2022/05/29 12:24:36;;;;;;;4.78;4.10;;;14.00;59.10;;;;;;5032572;28;20249;-58
2022/05/29 12:27:11;;;;;;;5.47;4.88;;;14.00;59.10;;;;;;5031043;28;20237;-58
2022/05/29 12:29:49;;;;;;;5.32;4.70;;;14.00;59.10;;;;;;5030776;28;20196;-58
2022/05/29 12:32:23;;;;;;;5.70;4.82;;;14.00;59.10;;;;;;5030767;28;20188;-58
2022/05/29 12:34:57;;;;;;;6.00;4.78;;;14.00;59.10;;;;;;5031561;28;20200;-59
2022/05/29 12:37:53;;;;;;;5.30;4.80;;;14.00;59.10;;;;;;5031874;28;20200;-59
2022/05/29 12:40:49;;;;;;;4.47;3.95;;;14.00;59.10;;;;;;5030243;28;20192;-59
2022/05/29 12:44:06;;;;;;;5.15;4.65;;;14.00;59.10;;;;;;5011859;28;20201;-59
2022/05/29 12:47:09;;;;;;;5.25;4.60;;;14.00;59.00;;;;;;5030217;28;20247;-59
2022/05/29 12:50:21;;;;;;;5.15;4.65;;;14.00;59.10;;;;;;5031773;28;20250;-57
2022/05/29 12:53:13;;;;;;;4.80;4.30;;;14.00;59.00;;;;;;5007422;28;20188;-58
2022/05/29 12:56:11;;;;;;;5.00;4.50;;;14.00;59.00;;;;;;5031379;28;20252;-59
2022/05/29 12:59:11;;;;;;;5.13;4.30;;;13.90;59.00;;;;;;5029574;28;20192;-59
2022/05/29 13:02:08;;;;;;;4.97;4.35;;;13.90;59.00;;;;;;5031082;28;20703;-57
2022/05/29 13:05:17;;;;;;;4.70;4.22;;;13.90;59.00;;;;;;5024846;28;20189;-59
2022/05/29 13:08:17;;;;;;;4.43;4.03;;;13.90;59.00;;;;;;5010902;28;20256;-53
2022/05/29 13:10:53;;;;;;;4.72;4.22;;;13.90;59.00;;;;;;5006997;28;20197;-58
2022/05/29 13:13:32;;;;;;;5.15;4.13;;;13.90;59.00;;;;;;5010888;28;20197;-58
2022/05/29 13:16:25;;;;;;;4.70;4.15;;;13.90;59.00;;;;;;5017045;28;20746;-56
2022/05/29 13:19:14;;;;;;;4.70;3.95;;;13.90;58.90;;;;;;5030493;28;20196;-56
2022/05/29 13:22:00;;;;;;;4.50;4.10;;;13.90;58.90;;;;;;5030920;28;20375;-55
2022/05/29 13:24:35;;;;;;;5.18;4.13;;;13.90;58.90;;;;;;5030316;28;20666;-58
2022/05/29 13:27:34;;;;;;;4.75;4.25;;;13.90;58.90;;;;;;5029975;28;20250;-57
2022/05/29 13:30:10;;;;;;;4.93;4.47;;;13.90;58.90;;;;;;5030020;28;20218;-58
2022/05/29 13:32:40;;;;;;;4.72;4.22;;;13.90;58.90;;;;;;5029535;28;20199;-58
2022/05/29 13:35:44;;;;;;;6.78;4.38;;;13.80;58.90;;;;;;5030539;28;20216;-58
2022/05/29 13:38:34;;;;;;;4.03;3.70;;;13.80;58.90;;;;;;5028954;28;20203;-58
2022/05/29 13:41:07;;;;;;;4.20;3.90;;;13.90;58.90;;;;;;5030037;28;20200;-58
2022/05/29 13:43:43;;;;;;;4.43;4.03;;;13.80;58.90;;;;;;5030085;28;20668;-57
2022/05/29 13:46:26;;;;;;;4.55;3.72;;;13.80;58.90;;;;;;5029923;28;20247;-56
2022/05/29 13:49:23;;;;;;;4.28;3.85;;;13.80;58.90;;;;;;5030089;28;20584;-58
2022/05/29 13:51:56;;;;;;;4.90;4.00;;;13.80;58.90;;;;;;5017710;28;20857;-58
2022/05/29 13:54:29;;;;;;;4.38;3.70;;;13.80;58.80;;;;;;5030466;28;20251;-58
2022/05/29 13:57:08;;;;;;;4.40;4.00;;;13.80;58.90;;;;;;5030098;28;20232;-58